sensor_id;sensor_type;location;lat;lon;timestamp;pressure;altitude;pressure_sealevel;temperature;humidity
9935;BME280;5006;41.828;23.478;2023-03-03T00:00:55;90123.25;;;18.61;43.01
9935;BME280;5006;41.828;23.478;2023-03-03T00:02:01;90122.91;;;17.75;44.65
9935;BME280;5006;41.828;23.478;2023-03-03T00:03:07;90126.03;;;18.36;43.88
9935;BME280;5006;41.828;23.478;2023-03-03T00:04:13;90118.69;;;17.86;44.66
9935;BME280;5006;41.828;23.478;2023-03-03T00:05:19;90129.53;;;17.99;44.20
9935;BME280;5006;41.828;23.478;2023-03-03T00:06:25;90119.94;;;18.44;43.71
9935;BME280;5006;41.828;23.478;2023-03-03T00:07:33;90121.72;;;17.63;45.26
9935;BME280;5006;41.828;23.478;2023-03-03T00:08:38;90116.31;;;17.88;44.25
9935;BME280;5006;41.828;23.478;2023-03-03T00:09:45;90111.19;;;17.41;44.89
9935;BME280;5006;41.828;23.478;2023-03-03T00:10:50;90109.03;;;17.07;46.28
9935;BME280;5006;41.828;23.478;2023-03-03T00:11:58;90104.13;;;17.55;45.21
9935;BME280;5006;41.828;23.478;2023-03-03T00:13:05;90104.47;;;17.70;44.92
9935;BME280;5006;41.828;23.478;2023-03-03T00:14:21;90112.63;;;17.70;44.54
9935;BME280;5006;41.828;23.478;2023-03-03T00:15:29;90112.19;;;17.84;44.61
9935;BME280;5006;41.828;23.478;2023-03-03T00:16:36;90107.19;;;16.31;46.79
9935;BME280;5006;41.828;23.478;2023-03-03T00:17:42;90108.63;;;16.52;46.96
9935;BME280;5006;41.828;23.478;2023-03-03T00:18:47;90113.00;;;16.62;46.97
9935;BME280;5006;41.828;23.478;2023-03-03T00:19:53;90113.16;;;15.78;47.61
9935;BME280;5006;41.828;23.478;2023-03-03T00:21:00;90113.66;;;16.05;48.37
9935;BME280;5006;41.828;23.478;2023-03-03T00:22:13;90106.88;;;16.29;47.64
9935;BME280;5006;41.828;23.478;2023-03-03T00:23:27;90105.03;;;15.94;47.40
9935;BME280;5006;41.828;23.478;2023-03-03T00:24:36;90103.41;;;15.13;49.73
9935;BME280;5006;41.828;23.478;2023-03-03T00:25:42;90113.31;;;15.55;50.30
9935;BME280;5006;41.828;23.478;2023-03-03T00:26:50;90109.53;;;15.53;49.41
9935;BME280;5006;41.828;23.478;2023-03-03T00:28:00;90099.28;;;16.40;47.20
9935;BME280;5006;41.828;23.478;2023-03-03T00:29:26;90104.13;;;15.85;47.09
9935;BME280;5006;41.828;23.478;2023-03-03T00:30:31;90103.34;;;15.17;49.29
9935;BME280;5006;41.828;23.478;2023-03-03T00:31:37;90100.63;;;15.68;48.05
9935;BME280;5006;41.828;23.478;2023-03-03T00:32:44;90106.09;;;14.16;50.99
9935;BME280;5006;41.828;23.478;2023-03-03T00:33:52;90099.00;;;14.84;50.40
9935;BME280;5006;41.828;23.478;2023-03-03T00:35:18;90099.16;;;14.97;49.87
9935;BME280;5006;41.828;23.478;2023-03-03T00:36:34;90104.47;;;13.76;51.69
9935;BME280;5006;41.828;23.478;2023-03-03T00:37:40;90100.59;;;14.00;52.43
9935;BME280;5006;41.828;23.478;2023-03-03T00:38:46;90094.25;;;14.53;52.41
9935;BME280;5006;41.828;23.478;2023-03-03T00:39:51;90085.81;;;16.37;48.31
9935;BME280;5006;41.828;23.478;2023-03-03T00:40:57;90094.81;;;16.62;48.26
9935;BME280;5006;41.828;23.478;2023-03-03T00:42:09;90096.19;;;16.83;46.97
9935;BME280;5006;41.828;23.478;2023-03-03T00:43:20;90090.84;;;16.67;47.75
9935;BME280;5006;41.828;23.478;2023-03-03T00:44:37;90093.00;;;16.72;46.79
9935;BME280;5006;41.828;23.478;2023-03-03T00:45:45;90092.09;;;17.81;45.55
9935;BME280;5006;41.828;23.478;2023-03-03T00:46:52;90084.78;;;18.28;44.45
9935;BME280;5006;41.828;23.478;2023-03-03T00:47:58;90085.63;;;18.38;44.24
9935;BME280;5006;41.828;23.478;2023-03-03T00:49:21;90078.84;;;17.96;44.59
9935;BME280;5006;41.828;23.478;2023-03-03T00:50:33;90088.81;;;17.99;44.65
9935;BME280;5006;41.828;23.478;2023-03-03T00:51:42;90082.94;;;18.13;44.91
9935;BME280;5006;41.828;23.478;2023-03-03T00:52:55;90076.03;;;17.62;46.25
9935;BME280;5006;41.828;23.478;2023-03-03T00:54:04;90078.84;;;17.34;46.24
9935;BME280;5006;41.828;23.478;2023-03-03T00:55:10;90073.97;;;16.88;46.73
9935;BME280;5006;41.828;23.478;2023-03-03T00:56:15;90076.97;;;18.05;45.75
9935;BME280;5006;41.828;23.478;2023-03-03T00:57:21;90074.75;;;18.72;44.50
9935;BME280;5006;41.828;23.478;2023-03-03T00:58:25;90071.41;;;17.62;45.93
9935;BME280;5006;41.828;23.478;2023-03-03T00:59:31;90073.06;;;17.07;46.96
9935;BME280;5006;41.828;23.478;2023-03-03T01:00:37;90066.75;;;17.38;46.48
9935;BME280;5006;41.828;23.478;2023-03-03T01:01:44;90073.84;;;18.07;45.36
9935;BME280;5006;41.828;23.478;2023-03-03T01:02:49;90066.47;;;18.07;44.83
9935;BME280;5006;41.828;23.478;2023-03-03T01:03:55;90074.84;;;18.47;44.68
9935;BME280;5006;41.828;23.478;2023-03-03T01:05:01;90065.94;;;17.75;45.21
9935;BME280;5006;41.828;23.478;2023-03-03T01:06:05;90069.41;;;18.81;43.79
9935;BME280;5006;41.828;23.478;2023-03-03T01:07:13;90064.53;;;17.21;45.28
9935;BME280;5006;41.828;23.478;2023-03-03T01:08:18;90065.97;;;17.38;45.93
9935;BME280;5006;41.828;23.478;2023-03-03T01:09:25;90063.81;;;17.57;46.05
9935;BME280;5006;41.828;23.478;2023-03-03T01:10:34;90068.44;;;17.82;45.32
9935;BME280;5006;41.828;23.478;2023-03-03T01:11:40;90065.00;;;17.69;45.92
9935;BME280;5006;41.828;23.478;2023-03-03T01:12:45;90064.09;;;17.97;44.85
9935;BME280;5006;41.828;23.478;2023-03-03T01:13:51;90057.97;;;16.93;46.83
9935;BME280;5006;41.828;23.478;2023-03-03T01:14:56;90056.78;;;16.66;47.68
9935;BME280;5006;41.828;23.478;2023-03-03T01:16:02;90055.56;;;16.83;47.00
9935;BME280;5006;41.828;23.478;2023-03-03T01:17:07;90063.84;;;17.17;48.05
9935;BME280;5006;41.828;23.478;2023-03-03T01:18:13;90061.88;;;18.29;45.23
9935;BME280;5006;41.828;23.478;2023-03-03T01:19:18;90054.69;;;19.12;43.93
9935;BME280;5006;41.828;23.478;2023-03-03T01:20:23;90058.16;;;17.40;46.36
9935;BME280;5006;41.828;23.478;2023-03-03T01:21:28;90055.38;;;17.02;47.02
9935;BME280;5006;41.828;23.478;2023-03-03T01:22:35;90054.88;;;16.79;47.47
9935;BME280;5006;41.828;23.478;2023-03-03T01:23:40;90051.34;;;17.48;46.51
9935;BME280;5006;41.828;23.478;2023-03-03T01:24:45;90055.25;;;18.18;45.58
9935;BME280;5006;41.828;23.478;2023-03-03T01:25:50;90051.19;;;17.88;45.73
9935;BME280;5006;41.828;23.478;2023-03-03T01:26:56;90050.06;;;18.11;45.56
9935;BME280;5006;41.828;23.478;2023-03-03T01:28:01;90053.50;;;18.36;44.91
9935;BME280;5006;41.828;23.478;2023-03-03T01:29:07;90043.88;;;18.10;44.70
9935;BME280;5006;41.828;23.478;2023-03-03T01:30:12;90048.19;;;18.33;44.93
9935;BME280;5006;41.828;23.478;2023-03-03T01:31:18;90047.97;;;17.56;46.45
9935;BME280;5006;41.828;23.478;2023-03-03T01:32:22;90055.53;;;18.45;45.17
9935;BME280;5006;41.828;23.478;2023-03-03T01:33:28;90049.22;;;18.48;45.29
9935;BME280;5006;41.828;23.478;2023-03-03T01:34:33;90048.44;;;15.87;48.72
9935;BME280;5006;41.828;23.478;2023-03-03T01:35:43;90050.06;;;15.53;49.97
9935;BME280;5006;41.828;23.478;2023-03-03T01:36:47;90041.75;;;17.93;46.46
9935;BME280;5006;41.828;23.478;2023-03-03T01:37:54;90037.94;;;17.16;48.08
9935;BME280;5006;41.828;23.478;2023-03-03T01:39:00;90042.19;;;17.29;47.17
9935;BME280;5006;41.828;23.478;2023-03-03T01:40:12;90041.88;;;17.40;47.30
9935;BME280;5006;41.828;23.478;2023-03-03T01:41:18;90043.25;;;17.81;46.44
9935;BME280;5006;41.828;23.478;2023-03-03T01:42:22;90044.09;;;16.06;48.12
9935;BME280;5006;41.828;23.478;2023-03-03T01:43:32;90045.28;;;15.89;48.36
9935;BME280;5006;41.828;23.478;2023-03-03T01:44:37;90040.13;;;16.67;48.74
9935;BME280;5006;41.828;23.478;2023-03-03T01:47:31;90045.69;;;15.08;50.11
9935;BME280;5006;41.828;23.478;2023-03-03T01:48:39;90040.41;;;15.01;50.99
9935;BME280;5006;41.828;23.478;2023-03-03T01:49:49;90038.81;;;14.68;51.81
9935;BME280;5006;41.828;23.478;2023-03-03T01:50:59;90036.31;;;14.77;51.85
9935;BME280;5006;41.828;23.478;2023-03-03T01:52:10;90035.34;;;14.67;52.07
9935;BME280;5006;41.828;23.478;2023-03-03T01:53:19;90023.16;;;14.79;52.18
9935;BME280;5006;41.828;23.478;2023-03-03T01:54:30;90029.06;;;14.74;52.48
9935;BME280;5006;41.828;23.478;2023-03-03T01:55:38;90031.50;;;14.84;52.12
9935;BME280;5006;41.828;23.478;2023-03-03T01:56:45;90024.69;;;16.52;50.71
9935;BME280;5006;41.828;23.478;2023-03-03T01:57:55;90034.19;;;17.50;47.57
9935;BME280;5006;41.828;23.478;2023-03-03T01:59:05;90031.00;;;15.24;51.44
9935;BME280;5006;41.828;23.478;2023-03-03T02:00:11;90030.25;;;14.89;52.56
9935;BME280;5006;41.828;23.478;2023-03-03T02:01:19;90023.91;;;15.14;52.62
9935;BME280;5006;41.828;23.478;2023-03-03T02:02:26;90022.75;;;15.31;51.47
9935;BME280;5006;41.828;23.478;2023-03-03T02:03:34;90020.78;;;15.16;52.23
9935;BME280;5006;41.828;23.478;2023-03-03T02:04:39;90025.72;;;17.24;49.64
9935;BME280;5006;41.828;23.478;2023-03-03T02:05:45;90024.53;;;17.49;48.08
9935;BME280;5006;41.828;23.478;2023-03-03T02:06:53;90029.53;;;18.10;46.85
9935;BME280;5006;41.828;23.478;2023-03-03T02:08:00;90024.06;;;18.35;46.63
9935;BME280;5006;41.828;23.478;2023-03-03T02:09:09;90012.81;;;17.52;47.85
9935;BME280;5006;41.828;23.478;2023-03-03T02:10:19;90018.59;;;18.69;45.74
9935;BME280;5006;41.828;23.478;2023-03-03T02:11:28;90028.44;;;19.18;45.09
9935;BME280;5006;41.828;23.478;2023-03-03T02:12:37;90018.97;;;19.01;44.57
9935;BME280;5006;41.828;23.478;2023-03-03T02:13:42;90021.41;;;18.78;44.81
9935;BME280;5006;41.828;23.478;2023-03-03T02:14:47;90019.25;;;18.05;46.30
9935;BME280;5006;41.828;23.478;2023-03-03T02:15:53;90019.38;;;18.01;46.64
9935;BME280;5006;41.828;23.478;2023-03-03T02:16:59;90018.69;;;18.10;46.57
9935;BME280;5006;41.828;23.478;2023-03-03T02:18:08;90017.63;;;19.67;44.51
9935;BME280;5006;41.828;23.478;2023-03-03T02:19:20;90013.56;;;19.62;44.57
9935;BME280;5006;41.828;23.478;2023-03-03T02:20:40;90015.25;;;19.69;44.10
9935;BME280;5006;41.828;23.478;2023-03-03T02:21:49;90018.41;;;20.15;43.35
9935;BME280;5006;41.828;23.478;2023-03-03T02:22:57;90016.13;;;16.41;48.90
9935;BME280;5006;41.828;23.478;2023-03-03T02:24:07;90019.78;;;16.18;49.48
9935;BME280;5006;41.828;23.478;2023-03-03T02:25:21;90017.81;;;16.63;48.58
9935;BME280;5006;41.828;23.478;2023-03-03T02:26:31;90028.41;;;17.86;47.20
9935;BME280;5006;41.828;23.478;2023-03-03T02:27:42;90014.13;;;17.36;47.55
9935;BME280;5006;41.828;23.478;2023-03-03T02:28:49;90012.59;;;17.59;47.48
9935;BME280;5006;41.828;23.478;2023-03-03T02:29:54;90016.53;;;17.58;47.19
9935;BME280;5006;41.828;23.478;2023-03-03T02:31:01;90023.13;;;17.57;47.69
9935;BME280;5006;41.828;23.478;2023-03-03T02:32:06;90012.59;;;17.59;47.46
9935;BME280;5006;41.828;23.478;2023-03-03T02:33:13;90011.19;;;17.30;48.18
9935;BME280;5006;41.828;23.478;2023-03-03T02:34:17;90018.63;;;16.76;49.27
9935;BME280;5006;41.828;23.478;2023-03-03T02:35:32;90012.81;;;17.28;48.38
9935;BME280;5006;41.828;23.478;2023-03-03T02:36:38;90004.88;;;17.08;48.97
9935;BME280;5006;41.828;23.478;2023-03-03T02:37:44;90007.91;;;16.98;49.01
9935;BME280;5006;41.828;23.478;2023-03-03T02:38:54;90011.78;;;16.72;49.02
9935;BME280;5006;41.828;23.478;2023-03-03T02:40:02;90012.22;;;16.95;49.33
9935;BME280;5006;41.828;23.478;2023-03-03T02:41:10;90018.72;;;14.88;52.61
9935;BME280;5006;41.828;23.478;2023-03-03T02:42:21;90012.66;;;14.65;53.32
9935;BME280;5006;41.828;23.478;2023-03-03T02:43:35;90017.44;;;14.57;54.08
9935;BME280;5006;41.828;23.478;2023-03-03T02:44:44;90005.63;;;15.54;52.35
9935;BME280;5006;41.828;23.478;2023-03-03T02:45:50;90012.94;;;17.49;48.75
9935;BME280;5006;41.828;23.478;2023-03-03T02:46:56;90014.31;;;17.78;48.45
9935;BME280;5006;41.828;23.478;2023-03-03T02:48:02;90004.03;;;16.29;49.03
9935;BME280;5006;41.828;23.478;2023-03-03T02:49:09;90011.16;;;17.05;50.54
9935;BME280;5006;41.828;23.478;2023-03-03T02:50:15;90021.75;;;15.57;51.57
9935;BME280;5006;41.828;23.478;2023-03-03T02:51:20;90015.13;;;15.90;51.35
9935;BME280;5006;41.828;23.478;2023-03-03T02:52:26;90009.59;;;16.10;51.10
9935;BME280;5006;41.828;23.478;2023-03-03T02:53:31;90018.88;;;19.35;46.32
9935;BME280;5006;41.828;23.478;2023-03-03T02:54:37;90012.56;;;19.47;44.83
9935;BME280;5006;41.828;23.478;2023-03-03T02:55:41;90015.09;;;19.11;44.42
9935;BME280;5006;41.828;23.478;2023-03-03T02:56:47;90019.22;;;19.16;45.39
9935;BME280;5006;41.828;23.478;2023-03-03T02:57:53;90015.50;;;19.22;44.98
9935;BME280;5006;41.828;23.478;2023-03-03T02:59:00;90018.41;;;18.85;44.88
9935;BME280;5006;41.828;23.478;2023-03-03T03:00:07;90013.47;;;17.07;48.30
9935;BME280;5006;41.828;23.478;2023-03-03T03:01:13;90019.53;;;16.57;48.80
9935;BME280;5006;41.828;23.478;2023-03-03T03:02:19;90020.22;;;16.61;48.91
9935;BME280;5006;41.828;23.478;2023-03-03T03:03:25;90018.19;;;17.03;49.26
9935;BME280;5006;41.828;23.478;2023-03-03T03:04:29;90019.78;;;17.41;47.54
9935;BME280;5006;41.828;23.478;2023-03-03T03:05:36;90017.28;;;16.11;49.93
9935;BME280;5006;41.828;23.478;2023-03-03T03:06:41;90016.97;;;16.66;49.03
9935;BME280;5006;41.828;23.478;2023-03-03T03:07:49;90019.22;;;15.34;51.10
9935;BME280;5006;41.828;23.478;2023-03-03T03:08:54;90017.84;;;15.90;50.54
9935;BME280;5006;41.828;23.478;2023-03-03T03:09:59;90022.41;;;15.77;50.66
9935;BME280;5006;41.828;23.478;2023-03-03T03:11:06;90017.38;;;15.47;50.90
9935;BME280;5006;41.828;23.478;2023-03-03T03:12:12;90021.00;;;14.35;51.38
9935;BME280;5006;41.828;23.478;2023-03-03T03:13:20;90017.63;;;13.19;54.84
9935;BME280;5006;41.828;23.478;2023-03-03T03:14:26;90020.09;;;13.33;54.07
9935;BME280;5006;41.828;23.478;2023-03-03T03:15:34;90012.56;;;16.28;50.12
9935;BME280;5006;41.828;23.478;2023-03-03T03:16:41;90020.69;;;15.99;49.88
9935;BME280;5006;41.828;23.478;2023-03-03T03:17:45;90025.03;;;15.49;50.06
9935;BME280;5006;41.828;23.478;2023-03-03T03:19:10;90019.53;;;14.85;51.45
9935;BME280;5006;41.828;23.478;2023-03-03T03:20:16;90019.88;;;14.52;52.16
9935;BME280;5006;41.828;23.478;2023-03-03T03:21:22;90015.72;;;14.28;51.50
9935;BME280;5006;41.828;23.478;2023-03-03T03:22:28;90023.47;;;13.41;53.56
9935;BME280;5006;41.828;23.478;2023-03-03T03:23:33;90020.38;;;13.39;53.83
9935;BME280;5006;41.828;23.478;2023-03-03T03:24:39;90018.13;;;16.08;49.88
9935;BME280;5006;41.828;23.478;2023-03-03T03:25:46;90015.59;;;15.06;50.37
9935;BME280;5006;41.828;23.478;2023-03-03T03:26:59;90023.19;;;15.62;49.17
9935;BME280;5006;41.828;23.478;2023-03-03T03:28:05;90012.41;;;16.63;47.65
9935;BME280;5006;41.828;23.478;2023-03-03T03:29:12;90023.41;;;15.99;48.54
9935;BME280;5006;41.828;23.478;2023-03-03T03:30:17;90017.22;;;15.99;48.85
9935;BME280;5006;41.828;23.478;2023-03-03T03:31:24;90015.84;;;15.62;49.02
9935;BME280;5006;41.828;23.478;2023-03-03T03:32:29;90013.59;;;15.25;50.31
9935;BME280;5006;41.828;23.478;2023-03-03T03:33:35;90016.13;;;16.41;48.18
9935;BME280;5006;41.828;23.478;2023-03-03T03:34:41;90015.41;;;16.08;48.42
9935;BME280;5006;41.828;23.478;2023-03-03T03:35:47;90013.94;;;15.12;49.75
9935;BME280;5006;41.828;23.478;2023-03-03T03:36:54;90022.84;;;14.38;51.42
9935;BME280;5006;41.828;23.478;2023-03-03T03:38:02;90014.03;;;13.52;53.27
9935;BME280;5006;41.828;23.478;2023-03-03T03:39:08;90012.50;;;13.94;53.26
9935;BME280;5006;41.828;23.478;2023-03-03T03:40:17;90010.03;;;16.37;49.36
9935;BME280;5006;41.828;23.478;2023-03-03T03:41:23;90014.28;;;15.93;49.21
9935;BME280;5006;41.828;23.478;2023-03-03T03:42:28;90012.84;;;15.89;48.86
9935;BME280;5006;41.828;23.478;2023-03-03T03:43:34;89999.66;;;16.35;47.89
9935;BME280;5006;41.828;23.478;2023-03-03T03:44:42;90008.78;;;15.97;48.10
9935;BME280;5006;41.828;23.478;2023-03-03T03:45:46;90010.19;;;16.99;47.18
9935;BME280;5006;41.828;23.478;2023-03-03T03:46:53;90015.34;;;17.93;45.79
9935;BME280;5006;41.828;23.478;2023-03-03T03:47:58;90007.41;;;18.11;45.23
9935;BME280;5006;41.828;23.478;2023-03-03T03:49:03;90009.75;;;17.75;45.87
9935;BME280;5006;41.828;23.478;2023-03-03T03:50:09;90013.53;;;16.21;47.62
9935;BME280;5006;41.828;23.478;2023-03-03T03:51:15;90015.13;;;15.90;49.17
9935;BME280;5006;41.828;23.478;2023-03-03T03:52:20;90014.09;;;16.57;47.64
9935;BME280;5006;41.828;23.478;2023-03-03T03:53:26;90017.19;;;16.84;47.17
9935;BME280;5006;41.828;23.478;2023-03-03T03:54:31;90010.31;;;17.08;46.97
9935;BME280;5006;41.828;23.478;2023-03-03T03:55:37;90019.31;;;16.07;49.03
9935;BME280;5006;41.828;23.478;2023-03-03T03:56:43;90013.31;;;16.00;49.52
9935;BME280;5006;41.828;23.478;2023-03-03T03:57:48;90014.84;;;16.01;49.39
9935;BME280;5006;41.828;23.478;2023-03-03T03:58:53;90017.66;;;16.26;48.70
9935;BME280;5006;41.828;23.478;2023-03-03T04:00:00;90021.66;;;15.45;49.47
9935;BME280;5006;41.828;23.478;2023-03-03T04:01:07;90012.78;;;16.21;48.60
9935;BME280;5006;41.828;23.478;2023-03-03T04:02:16;90019.59;;;16.41;48.32
9935;BME280;5006;41.828;23.478;2023-03-03T04:03:21;90017.66;;;16.95;47.55
9935;BME280;5006;41.828;23.478;2023-03-03T04:04:26;90011.16;;;16.39;47.94
9935;BME280;5006;41.828;23.478;2023-03-03T04:05:32;90014.28;;;15.93;48.78
9935;BME280;5006;41.828;23.478;2023-03-03T04:06:37;90016.34;;;16.87;47.83
9935;BME280;5006;41.828;23.478;2023-03-03T04:07:44;90012.38;;;17.79;46.35
9935;BME280;5006;41.828;23.478;2023-03-03T04:08:49;90011.69;;;16.75;47.23
9935;BME280;5006;41.828;23.478;2023-03-03T04:09:57;90011.91;;;15.95;49.00
9935;BME280;5006;41.828;23.478;2023-03-03T04:11:03;90011.50;;;16.95;46.82
9935;BME280;5006;41.828;23.478;2023-03-03T04:12:09;90011.28;;;16.32;48.76
9935;BME280;5006;41.828;23.478;2023-03-03T04:13:15;90011.94;;;15.31;50.19
9935;BME280;5006;41.828;23.478;2023-03-03T04:14:20;90016.66;;;15.43;50.51
9935;BME280;5006;41.828;23.478;2023-03-03T04:15:27;90017.31;;;15.95;49.88
9935;BME280;5006;41.828;23.478;2023-03-03T04:16:32;90012.09;;;15.24;52.06
9935;BME280;5006;41.828;23.478;2023-03-03T04:17:39;90023.31;;;16.31;49.20
9935;BME280;5006;41.828;23.478;2023-03-03T04:18:45;90012.34;;;16.38;48.55
9935;BME280;5006;41.828;23.478;2023-03-03T04:19:52;90021.59;;;17.69;47.15
9935;BME280;5006;41.828;23.478;2023-03-03T04:20:57;90011.09;;;17.34;47.62
9935;BME280;5006;41.828;23.478;2023-03-03T04:22:04;90013.25;;;17.76;47.27
9935;BME280;5006;41.828;23.478;2023-03-03T04:23:10;90021.91;;;17.83;47.07
9935;BME280;5006;41.828;23.478;2023-03-03T04:24:16;90010.75;;;17.07;46.96
9935;BME280;5006;41.828;23.478;2023-03-03T04:25:24;90021.25;;;16.51;48.62
9935;BME280;5006;41.828;23.478;2023-03-03T04:26:31;90016.16;;;15.96;49.38
9935;BME280;5006;41.828;23.478;2023-03-03T04:27:36;90022.75;;;14.96;51.92
9935;BME280;5006;41.828;23.478;2023-03-03T04:28:43;90019.69;;;15.93;49.21
9935;BME280;5006;41.828;23.478;2023-03-03T04:29:49;90023.06;;;14.82;52.59
9935;BME280;5006;41.828;23.478;2023-03-03T04:30:55;90014.59;;;15.15;52.27
9935;BME280;5006;41.828;23.478;2023-03-03T04:32:02;90018.53;;;15.30;52.25
9935;BME280;5006;41.828;23.478;2023-03-03T04:33:06;90013.56;;;16.05;51.67
9935;BME280;5006;41.828;23.478;2023-03-03T04:34:14;90012.41;;;15.11;52.59
9935;BME280;5006;41.828;23.478;2023-03-03T04:35:21;90020.00;;;15.00;52.62
9935;BME280;5006;41.828;23.478;2023-03-03T04:36:27;90017.78;;;14.59;53.15
9935;BME280;5006;41.828;23.478;2023-03-03T04:37:33;90023.75;;;14.31;53.63
9935;BME280;5006;41.828;23.478;2023-03-03T04:38:38;90022.91;;;13.92;54.25
9935;BME280;5006;41.828;23.478;2023-03-03T04:39:43;90020.38;;;14.27;53.96
9935;BME280;5006;41.828;23.478;2023-03-03T04:40:48;90020.31;;;14.31;53.95
9935;BME280;5006;41.828;23.478;2023-03-03T04:41:55;90020.22;;;14.54;53.90
9935;BME280;5006;41.828;23.478;2023-03-03T04:42:59;90021.25;;;14.40;53.99
9935;BME280;5006;41.828;23.478;2023-03-03T04:44:05;90018.28;;;14.90;53.06
9935;BME280;5006;41.828;23.478;2023-03-03T04:45:10;90017.69;;;14.82;53.33
9935;BME280;5006;41.828;23.478;2023-03-03T04:46:18;90019.22;;;14.99;53.10
9935;BME280;5006;41.828;23.478;2023-03-03T04:47:22;90019.88;;;14.32;53.90
9935;BME280;5006;41.828;23.478;2023-03-03T04:48:28;90021.72;;;14.35;54.65
9935;BME280;5006;41.828;23.478;2023-03-03T04:49:33;90020.50;;;14.40;54.58
9935;BME280;5006;41.828;23.478;2023-03-03T04:50:41;90016.53;;;16.11;52.00
9935;BME280;5006;41.828;23.478;2023-03-03T04:51:46;90022.78;;;15.47;52.42
9935;BME280;5006;41.828;23.478;2023-03-03T04:52:51;90018.53;;;15.62;52.38
9935;BME280;5006;41.828;23.478;2023-03-03T04:53:56;90027.00;;;15.48;52.49
9935;BME280;5006;41.828;23.478;2023-03-03T04:55:02;90021.66;;;15.45;52.24
9935;BME280;5006;41.828;23.478;2023-03-03T04:56:08;90019.13;;;15.54;51.83
9935;BME280;5006;41.828;23.478;2023-03-03T04:57:14;90015.50;;;15.76;51.72
9935;BME280;5006;41.828;23.478;2023-03-03T04:58:19;90018.88;;;15.32;51.80
9935;BME280;5006;41.828;23.478;2023-03-03T04:59:25;90020.47;;;16.22;49.74
9935;BME280;5006;41.828;23.478;2023-03-03T05:00:30;90020.66;;;15.55;51.44
9935;BME280;5006;41.828;23.478;2023-03-03T05:01:39;90025.97;;;15.74;51.27
9935;BME280;5006;41.828;23.478;2023-03-03T05:02:46;90025.88;;;16.79;51.17
9935;BME280;5006;41.828;23.478;2023-03-03T05:03:52;90024.19;;;16.57;50.42
9935;BME280;5006;41.828;23.478;2023-03-03T05:04:57;90019.06;;;16.87;49.83
9935;BME280;5006;41.828;23.478;2023-03-03T05:06:03;90028.28;;;17.02;49.49
9935;BME280;5006;41.828;23.478;2023-03-03T05:07:08;90026.50;;;16.83;49.90
9935;BME280;5006;41.828;23.478;2023-03-03T05:08:14;90024.94;;;17.11;49.47
9935;BME280;5006;41.828;23.478;2023-03-03T05:09:19;90021.69;;;17.16;49.24
9935;BME280;5006;41.828;23.478;2023-03-03T05:10:25;90020.84;;;17.31;48.71
9935;BME280;5006;41.828;23.478;2023-03-03T05:11:30;90025.84;;;16.67;50.03
9935;BME280;5006;41.828;23.478;2023-03-03T05:12:36;90022.09;;;16.89;50.44
9935;BME280;5006;41.828;23.478;2023-03-03T05:13:41;90023.63;;;16.33;50.55
9935;BME280;5006;41.828;23.478;2023-03-03T05:14:47;90032.31;;;14.65;52.87
9935;BME280;5006;41.828;23.478;2023-03-03T05:15:52;90025.28;;;15.86;51.26
9935;BME280;5006;41.828;23.478;2023-03-03T05:17:02;90026.06;;;16.15;50.19
9935;BME280;5006;41.828;23.478;2023-03-03T05:18:06;90023.72;;;16.01;50.30
9935;BME280;5006;41.828;23.478;2023-03-03T05:19:12;90030.34;;;15.68;51.28
9935;BME280;5006;41.828;23.478;2023-03-03T05:20:17;90031.16;;;16.13;50.60
9935;BME280;5006;41.828;23.478;2023-03-03T05:21:22;90040.06;;;14.99;52.14
9935;BME280;5006;41.828;23.478;2023-03-03T05:22:27;90023.25;;;15.74;51.73
9935;BME280;5006;41.828;23.478;2023-03-03T05:23:32;90021.91;;;15.66;51.78
9935;BME280;5006;41.828;23.478;2023-03-03T05:24:38;90031.16;;;16.13;50.68
9935;BME280;5006;41.828;23.478;2023-03-03T05:25:43;90030.84;;;15.79;50.92
9935;BME280;5006;41.828;23.478;2023-03-03T05:26:49;90028.91;;;15.96;51.77
9935;BME280;5006;41.828;23.478;2023-03-03T05:27:54;90036.84;;;15.87;51.35
9935;BME280;5006;41.828;23.478;2023-03-03T05:29:00;90032.50;;;16.05;51.16
9935;BME280;5006;41.828;23.478;2023-03-03T05:30:06;90037.44;;;15.78;51.44
9935;BME280;5006;41.828;23.478;2023-03-03T05:31:12;90031.88;;;15.85;51.47
9935;BME280;5006;41.828;23.478;2023-03-03T05:32:18;90038.81;;;16.31;50.92
9935;BME280;5006;41.828;23.478;2023-03-03T05:33:24;90038.31;;;16.36;50.19
9935;BME280;5006;41.828;23.478;2023-03-03T05:34:29;90030.53;;;15.61;51.66
9935;BME280;5006;41.828;23.478;2023-03-03T05:35:34;90042.34;;;15.67;52.00
9935;BME280;5006;41.828;23.478;2023-03-03T05:36:39;90032.88;;;15.43;52.38
9935;BME280;5006;41.828;23.478;2023-03-03T05:37:45;90035.00;;;15.68;51.77
9935;BME280;5006;41.828;23.478;2023-03-03T05:38:50;90040.00;;;15.53;52.23
9935;BME280;5006;41.828;23.478;2023-03-03T05:39:56;90041.50;;;15.54;52.80
9935;BME280;5006;41.828;23.478;2023-03-03T05:41:01;90046.78;;;14.16;54.35
9935;BME280;5006;41.828;23.478;2023-03-03T05:42:08;90040.50;;;14.23;54.76
9935;BME280;5006;41.828;23.478;2023-03-03T05:43:12;90041.78;;;15.44;53.08
9935;BME280;5006;41.828;23.478;2023-03-03T05:44:18;90040.47;;;15.80;51.72
9935;BME280;5006;41.828;23.478;2023-03-03T05:45:23;90042.00;;;15.97;51.53
9935;BME280;5006;41.828;23.478;2023-03-03T05:46:29;90043.72;;;16.36;51.00
9935;BME280;5006;41.828;23.478;2023-03-03T05:47:35;90054.00;;;15.32;52.95
9935;BME280;5006;41.828;23.478;2023-03-03T05:48:40;90046.84;;;16.18;51.04
9935;BME280;5006;41.828;23.478;2023-03-03T05:49:46;90054.94;;;14.71;53.69
9935;BME280;5006;41.828;23.478;2023-03-03T05:50:52;90047.84;;;15.48;52.11
9935;BME280;5006;41.828;23.478;2023-03-03T05:51:58;90051.16;;;15.71;51.84
9935;BME280;5006;41.828;23.478;2023-03-03T05:53:04;90051.22;;;16.28;51.19
9935;BME280;5006;41.828;23.478;2023-03-03T05:54:10;90051.06;;;15.43;52.49
9935;BME280;5006;41.828;23.478;2023-03-03T05:55:15;90046.06;;;15.41;53.56
9935;BME280;5006;41.828;23.478;2023-03-03T05:56:21;90045.41;;;15.85;52.27
9935;BME280;5006;41.828;23.478;2023-03-03T05:57:25;90047.88;;;16.08;51.30
9935;BME280;5006;41.828;23.478;2023-03-03T05:58:31;90054.88;;;15.45;52.83
9935;BME280;5006;41.828;23.478;2023-03-03T05:59:37;90051.47;;;14.12;54.26
9935;BME280;5006;41.828;23.478;2023-03-03T06:00:42;90046.44;;;13.45;56.39